createdAt,value
2019-05-02T00:01:02.886Z,39.73
2019-05-02T00:03:35.975Z,39.73
2019-05-02T00:06:09.310Z,41.57
2019-05-02T00:08:40.575Z,41.63
2019-05-02T00:11:12.505Z,42.13
2019-05-02T00:13:44.273Z,42.93
2019-05-02T00:16:15.695Z,42.40
2019-05-02T00:18:46.614Z,41.97
2019-05-02T00:21:18.202Z,43.90
2019-05-02T00:23:49.470Z,41.13
2019-05-02T00:26:24.629Z,41.40
2019-05-02T00:28:53.638Z,41.40
2019-05-02T00:31:24.984Z,41.20
2019-05-02T00:33:55.980Z,40.63
2019-05-02T00:36:27.011Z,39.80
2019-05-02T00:38:58.028Z,40.73
2019-05-02T00:41:33.109Z,40.93
2019-05-02T00:44:01.677Z,41.47
2019-05-02T00:46:35.001Z,40.07
2019-05-02T00:49:07.252Z,40.30
2019-05-02T00:51:38.186Z,40.23
2019-05-02T00:54:09.242Z,39.50
2019-05-02T00:56:44.000Z,40.03
2019-05-02T00:59:12.988Z,41.37
2019-05-02T01:01:54.886Z,39.23
2019-05-02T01:04:31.319Z,40.93
2019-05-02T01:07:02.602Z,39.87
2019-05-02T01:09:34.312Z,40.87
2019-05-02T01:12:08.435Z,39.87
2019-05-02T01:14:38.189Z,40.43
2019-05-02T01:17:09.767Z,39.40
2019-05-02T01:19:41.041Z,39.10
2019-05-02T01:22:15.893Z,39.47
2019-05-02T01:24:56.958Z,39.43
2019-05-02T01:27:45.556Z,42.63
2019-05-02T01:30:42.448Z,42.07
2019-05-02T01:33:43.632Z,41.20
2019-05-02T01:36:22.181Z,40.07
2019-05-02T01:38:53.261Z,41.43
2019-05-02T01:41:29.023Z,42.40
2019-05-02T01:44:00.133Z,40.40
2019-05-02T01:46:29.899Z,41.33
2019-05-02T01:49:00.915Z,42.00
2019-05-02T01:51:32.197Z,43.90
2019-05-02T01:54:04.946Z,42.93
2019-05-02T01:56:35.868Z,42.50
2019-05-02T01:59:06.823Z,41.27
2019-05-02T02:01:37.863Z,43.43
2019-05-02T02:04:09.841Z,42.30
2019-05-02T02:06:43.405Z,40.97
2019-05-02T02:09:14.831Z,42.77
2019-05-02T02:11:45.834Z,42.50
2019-05-02T02:14:18.732Z,42.83
2019-05-02T02:16:51.540Z,44.63
2019-05-02T02:19:28.084Z,42.57
2019-05-02T02:22:18.346Z,40.83
2019-05-02T02:25:08.336Z,41.97
2019-05-02T02:27:40.448Z,39.57
2019-05-02T02:30:17.590Z,41.10
2019-05-02T02:32:44.286Z,41.20
2019-05-02T02:35:15.622Z,41.13
2019-05-02T02:37:53.092Z,41.13
2019-05-02T02:40:19.765Z,39.60
2019-05-02T02:42:51.196Z,41.23
2019-05-02T02:45:35.559Z,41.40
2019-05-02T02:48:06.569Z,41.83
2019-05-02T02:50:43.231Z,40.60
2019-05-02T02:53:10.603Z,40.07
2019-05-02T02:55:41.610Z,41.00
2019-05-02T02:58:12.546Z,40.90
2019-05-02T03:00:47.629Z,40.87
2019-05-02T03:03:20.788Z,42.23
2019-05-02T03:05:49.467Z,40.83
2019-05-02T03:08:22.247Z,42.00
2019-05-02T03:10:53.431Z,40.20
2019-05-02T03:13:52.578Z,39.43
2019-05-02T03:16:22.261Z,40.93
2019-05-02T03:18:53.412Z,40.50
2019-05-02T03:21:24.423Z,40.80
2019-05-02T03:24:03.062Z,40.27
2019-05-02T03:26:28.226Z,40.53
2019-05-02T03:29:00.788Z,39.07
2019-05-02T03:31:32.381Z,39.80
2019-05-02T03:34:03.487Z,40.00
2019-05-02T03:36:36.751Z,41.57
2019-05-02T03:39:14.955Z,42.97
2019-05-02T03:41:41.148Z,41.37
2019-05-02T03:44:25.152Z,43.20
2019-05-02T03:46:46.250Z,43.50
2019-05-02T03:49:17.575Z,44.43
2019-05-02T03:51:49.103Z,43.53
2019-05-02T03:54:20.350Z,42.80
2019-05-02T03:56:53.448Z,42.30
2019-05-02T03:59:37.060Z,43.93
2019-05-02T04:01:59.163Z,43.13
2019-05-02T04:04:30.309Z,42.30
2019-05-02T04:07:03.584Z,42.20
2019-05-02T04:09:42.456Z,41.87
2019-05-02T04:12:19.065Z,42.50
2019-05-02T04:14:44.926Z,43.00
2019-05-02T04:17:16.038Z,43.27
2019-05-02T04:19:49.252Z,42.73
2019-05-02T04:22:21.005Z,45.43
2019-05-02T04:24:56.854Z,43.97
2019-05-02T04:27:27.808Z,43.67
2019-05-02T04:30:10.156Z,43.13
2019-05-02T04:32:43.133Z,45.60
2019-05-02T04:35:13.539Z,45.67
2019-05-02T04:37:44.918Z,44.50
2019-05-02T04:40:18.255Z,45.27
2019-05-02T04:43:00.300Z,42.43
2019-05-02T04:45:29.409Z,44.80
2019-05-02T04:48:00.975Z,43.60
2019-05-02T04:50:29.504Z,42.90
2019-05-02T04:53:02.131Z,44.27
2019-05-02T04:55:42.776Z,44.90
2019-05-02T04:58:24.338Z,42.73
2019-05-02T05:00:53.629Z,43.63
2019-05-02T05:03:21.242Z,43.30
2019-05-02T05:05:52.453Z,44.20
2019-05-02T05:08:26.497Z,43.40
2019-05-02T05:10:57.337Z,44.50
2019-05-02T05:13:29.057Z,44.87
2019-05-02T05:16:03.008Z,43.40
2019-05-02T05:18:33.083Z,43.47
2019-05-02T05:21:04.337Z,43.57
2019-05-02T05:23:43.669Z,43.53
2019-05-02T05:26:14.606Z,45.37
2019-05-02T05:28:47.663Z,45.37
2019-05-02T05:31:23.871Z,44.53
2019-05-02T05:33:51.859Z,43.33
2019-05-02T05:36:29.315Z,44.67
2019-05-02T05:38:58.069Z,43.33
2019-05-02T05:41:28.974Z,44.37
2019-05-02T05:44:01.085Z,44.47
2019-05-02T05:46:33.284Z,44.30
2019-05-02T05:49:10.481Z,44.03
2019-05-02T05:51:38.543Z,42.23
2019-05-02T05:54:09.837Z,44.23
2019-05-02T05:56:43.161Z,44.17
2019-05-02T05:59:14.296Z,44.57
2019-05-02T06:01:47.817Z,54.48
2019-05-02T06:04:23.384Z,46.67
2019-05-02T06:06:54.069Z,44.30
2019-05-02T06:09:26.248Z,45.63
2019-05-02T06:11:57.216Z,44.33
2019-05-02T06:14:28.304Z,45.97
2019-05-02T06:17:00.302Z,45.97
2019-05-02T06:19:31.438Z,44.13
2019-05-02T06:22:02.361Z,44.40
2019-05-02T06:24:34.031Z,39.43
2019-05-02T06:27:05.467Z,41.73
2019-05-02T06:29:36.425Z,45.70
2019-05-02T06:32:08.104Z,44.13
2019-05-02T06:34:46.370Z,44.57
2019-05-02T06:37:13.558Z,43.13
2019-05-02T06:39:45.227Z,44.17
2019-05-02T06:42:17.040Z,43.47
2019-05-02T06:44:48.049Z,44.23
2019-05-02T06:47:19.466Z,44.40
2019-05-02T06:49:50.502Z,40.67
2019-05-02T06:52:21.594Z,39.67
2019-05-02T06:54:53.993Z,41.27
2019-05-02T06:57:25.891Z,43.60
2019-05-02T06:59:57.526Z,41.70
2019-05-02T07:02:33.670Z,42.03
2019-05-02T07:05:02.516Z,50.48
2019-05-02T07:07:37.143Z,42.37
2019-05-02T07:10:07.730Z,45.10
2019-05-02T07:12:38.767Z,41.80
2019-05-02T07:15:25.539Z,43.03
2019-05-02T07:17:59.221Z,44.30
2019-05-02T07:20:35.246Z,43.97
2019-05-02T07:23:03.911Z,44.20
2019-05-02T07:25:39.064Z,43.87
2019-05-02T07:28:09.513Z,42.57
2019-05-02T07:30:40.440Z,42.73
2019-05-02T07:33:11.406Z,43.40
2019-05-02T07:35:42.824Z,41.87
2019-05-02T07:38:13.875Z,42.60
2019-05-02T07:40:48.178Z,42.83
2019-05-02T07:43:21.036Z,43.63
2019-05-02T07:45:50.315Z,43.27
2019-05-02T07:48:21.950Z,39.73
2019-05-02T07:50:53.374Z,42.13
2019-05-02T07:53:24.985Z,43.20
2019-05-02T07:55:56.705Z,41.93
2019-05-02T07:58:27.675Z,43.77
2019-05-02T08:00:58.727Z,40.90
2019-05-02T08:03:33.481Z,38.47
2019-05-02T08:06:02.512Z,37.97
2019-05-02T08:08:36.341Z,39.07
2019-05-02T08:11:06.591Z,39.33
2019-05-02T08:13:37.613Z,38.63
2019-05-02T08:16:08.655Z,37.23
2019-05-02T08:18:40.011Z,38.20
2019-05-02T08:21:11.046Z,37.13
2019-05-02T08:23:42.253Z,35.97
2019-05-02T08:26:16.444Z,35.83
2019-05-02T08:28:54.366Z,33.23
2019-05-02T08:31:25.802Z,34.37
2019-05-02T08:33:57.080Z,36.00
2019-05-02T08:36:29.110Z,36.07
2019-05-02T08:39:00.148Z,38.30
2019-05-02T08:41:31.093Z,37.60
2019-05-02T08:44:02.154Z,36.80
2019-05-02T08:46:33.498Z,36.30
2019-05-02T08:49:04.954Z,36.17
2019-05-02T08:51:36.292Z,35.67
2019-05-02T08:54:07.222Z,35.17
2019-05-02T08:56:38.201Z,32.77
2019-05-02T08:59:09.373Z,32.33
2019-05-02T09:01:44.741Z,32.37
2019-05-02T09:04:14.333Z,35.63
2019-05-02T09:06:46.092Z,33.87
2019-05-02T09:09:17.297Z,34.73
2019-05-02T09:12:01.310Z,35.43
2019-05-02T09:14:21.649Z,34.20
2019-05-02T09:16:52.647Z,33.13
2019-05-02T09:19:26.376Z,32.53
2019-05-02T09:21:56.759Z,33.33
2019-05-02T09:24:28.020Z,31.13
2019-05-02T09:26:58.998Z,31.87
2019-05-02T09:29:30.102Z,31.57
2019-05-02T09:32:02.193Z,32.30
2019-05-02T09:34:33.366Z,28.30
2019-05-02T09:37:05.108Z,25.97
2019-05-02T09:39:36.600Z,26.93
2019-05-02T09:42:12.225Z,27.37
2019-05-02T09:44:42.584Z,29.73
2019-05-02T09:47:27.475Z,28.70
2019-05-02T09:50:08.289Z,30.47
2019-05-02T09:52:41.072Z,30.50
2019-05-02T09:55:12.378Z,32.27
2019-05-02T09:57:43.441Z,30.80
2019-05-02T10:00:52.921Z,31.00
2019-05-02T10:03:24.386Z,30.57
2019-05-02T10:05:55.762Z,32.57
2019-05-02T10:08:26.861Z,30.73
2019-05-02T10:10:58.222Z,33.57
2019-05-02T10:13:29.248Z,33.33
2019-05-02T10:16:02.062Z,33.57
2019-05-02T10:18:33.185Z,37.00
2019-05-02T10:21:10.966Z,37.53
2019-05-02T10:23:37.614Z,38.03
2019-05-02T10:26:14.676Z,41.60
2019-05-02T10:28:49.112Z,39.07
2019-05-02T10:31:14.632Z,40.90
2019-05-02T10:33:45.649Z,43.47
2019-05-02T10:36:19.661Z,46.13
2019-05-02T10:38:54.904Z,46.93
2019-05-02T10:41:22.427Z,46.73
2019-05-02T10:43:56.609Z,48.73
2019-05-02T10:46:36.357Z,49.33
2019-05-02T10:49:17.788Z,47.60
2019-05-02T10:51:51.826Z,47.47
2019-05-02T10:54:23.139Z,47.90
2019-05-02T10:56:54.228Z,50.07
2019-05-02T10:59:25.228Z,48.90
2019-05-02T11:02:15.293Z,48.70
2019-05-02T11:04:52.339Z,49.33
2019-05-02T11:07:26.283Z,47.17
2019-05-02T11:10:01.913Z,48.43
2019-05-02T11:12:44.408Z,46.50
2019-05-02T11:15:27.786Z,44.63
2019-05-02T11:17:58.736Z,47.13
2019-05-02T11:20:31.864Z,46.43
2019-05-02T11:23:02.945Z,48.17
2019-05-02T11:25:34.566Z,47.57
2019-05-02T11:28:07.176Z,47.07
2019-05-02T11:30:41.857Z,47.97
2019-05-02T11:33:13.441Z,48.30
2019-05-02T11:35:49.070Z,48.23
2019-05-02T11:38:33.644Z,48.23
2019-05-02T11:40:52.101Z,48.13
2019-05-02T11:43:23.328Z,47.20
2019-05-02T11:46:01.545Z,49.53
2019-05-02T11:48:27.324Z,47.37
2019-05-02T11:50:58.782Z,47.63
2019-05-02T11:53:29.824Z,48.03
2019-05-02T11:56:03.775Z,49.03
2019-05-02T11:58:33.528Z,45.47
2019-05-02T12:01:05.474Z,46.60
2019-05-02T12:03:44.218Z,45.07
2019-05-02T12:06:19.526Z,45.77
2019-05-02T12:08:49.506Z,49.07
2019-05-02T12:11:22.771Z,48.67
2019-05-02T12:13:56.898Z,45.50
2019-05-02T12:16:27.409Z,44.93
2019-05-02T12:19:09.499Z,45.40
2019-05-02T12:21:32.481Z,47.47
2019-05-02T12:24:04.029Z,45.57
2019-05-02T12:26:35.372Z,45.20
2019-05-02T12:29:06.382Z,44.63
2019-05-02T12:31:37.474Z,43.00
2019-05-02T12:34:08.557Z,43.53
2019-05-02T12:36:39.917Z,45.70
2019-05-02T12:39:12.642Z,43.23
2019-05-02T12:41:44.226Z,44.17
2019-05-02T12:44:15.736Z,47.30
2019-05-02T12:46:46.671Z,47.17
2019-05-02T12:49:25.337Z,45.60
2019-05-02T12:51:52.421Z,34.10
2019-05-02T12:54:23.692Z,34.50
2019-05-02T12:56:55.139Z,32.20
2019-05-02T12:59:26.915Z,31.20
2019-05-02T13:01:59.571Z,30.27
2019-05-02T13:04:32.271Z,30.13
2019-05-02T13:07:03.704Z,29.67
2019-05-02T13:09:42.006Z,31.17
2019-05-02T13:12:17.652Z,32.43
2019-05-02T13:14:48.620Z,32.43
2019-05-02T13:17:19.696Z,32.20
2019-05-02T13:19:57.134Z,33.80
2019-05-02T13:23:06.365Z,33.77
2019-05-02T13:25:37.411Z,33.20
2019-05-02T13:28:08.607Z,32.93
2019-05-02T13:30:47.920Z,33.97
2019-05-02T13:33:27.470Z,33.03
2019-05-02T13:36:02.388Z,32.93
2019-05-02T13:38:33.015Z,29.70
2019-05-02T13:41:04.029Z,30.53
2019-05-02T13:43:42.298Z,29.97
2019-05-02T13:46:22.053Z,28.37
2019-05-02T13:48:52.867Z,25.17
2019-05-02T13:51:24.250Z,24.90
2019-05-02T13:54:02.252Z,25.43
2019-05-02T13:56:52.803Z,25.93
2019-05-02T13:59:24.466Z,24.80
2019-05-02T14:01:55.904Z,24.73
2019-05-02T14:04:27.213Z,23.50
2019-05-02T14:06:58.993Z,22.73
2019-05-02T14:09:39.624Z,22.63
2019-05-02T14:12:29.060Z,21.57
2019-05-02T14:15:00.127Z,21.83
2019-05-02T14:17:32.655Z,20.20
2019-05-02T14:20:10.793Z,20.23
2019-05-02T14:22:37.066Z,18.43
2019-05-02T14:25:09.333Z,18.73
2019-05-02T14:27:42.174Z,19.40
2019-05-02T14:30:13.869Z,19.17
2019-05-02T14:32:45.137Z,17.73
2019-05-02T14:35:29.093Z,23.15
2019-05-02T14:38:16.603Z,19.87
2019-05-02T14:41:30.096Z,19.23
2019-05-02T14:43:58.106Z,17.27
2019-05-02T14:46:35.403Z,18.50
2019-05-02T14:49:02.758Z,15.83
2019-05-02T14:51:36.632Z,15.50
2019-05-02T14:54:08.643Z,17.00
2019-05-02T14:57:01.964Z,17.07
2019-05-02T14:59:33.085Z,16.97
2019-05-02T15:02:07.691Z,17.93
2019-05-02T15:04:44.675Z,15.30
2019-05-02T15:07:12.969Z,14.13
2019-05-02T15:09:44.126Z,15.40
2019-05-02T15:12:18.900Z,15.73
2019-05-02T15:14:49.810Z,14.70
2019-05-02T15:17:20.437Z,15.53
2019-05-02T15:19:52.675Z,14.70
2019-05-02T15:22:27.493Z,14.87
2019-05-02T15:24:56.621Z,15.20
2019-05-02T15:27:39.340Z,15.23
2019-05-02T15:30:06.544Z,16.10
2019-05-02T15:32:46.936Z,13.70
2019-05-02T15:35:42.808Z,13.40
2019-05-02T15:38:20.718Z,13.07
2019-05-02T15:40:51.369Z,14.17
2019-05-02T15:43:22.191Z,14.57
2019-05-02T15:45:54.314Z,14.67
2019-05-02T15:48:27.503Z,14.50
2019-05-02T15:51:00.053Z,15.70
2019-05-02T15:53:44.599Z,14.83
2019-05-02T15:56:20.030Z,14.93
2019-05-02T15:58:48.739Z,13.80
2019-05-02T16:01:29.507Z,11.60
2019-05-02T16:04:01.717Z,11.27
2019-05-02T16:06:34.073Z,10.73
2019-05-02T16:09:07.338Z,9.90
2019-05-02T16:11:40.265Z,8.90
2019-05-02T16:14:12.775Z,9.70
2019-05-02T16:16:45.317Z,10.67
2019-05-02T16:19:27.597Z,10.30
2019-05-02T16:21:54.303Z,11.53
2019-05-02T16:24:26.031Z,13.00
2019-05-02T16:26:57.417Z,11.93
2019-05-02T16:29:29.130Z,12.00
2019-05-02T16:32:18.167Z,14.37
2019-05-02T16:34:55.214Z,15.07
2019-05-02T16:37:27.038Z,14.63
2019-05-02T16:39:58.147Z,16.13
2019-05-02T16:42:29.560Z,17.23
2019-05-02T16:45:02.588Z,17.73
2019-05-02T16:47:34.281Z,18.77
2019-05-02T16:50:06.890Z,20.77
2019-05-02T16:52:42.520Z,21.00
2019-05-02T16:55:15.127Z,22.13
2019-05-02T16:57:44.258Z,20.93
2019-05-02T17:00:19.852Z,20.90
2019-05-02T17:02:51.370Z,21.90
2019-05-02T17:05:23.169Z,20.60
2019-05-02T17:08:10.626Z,21.87
2019-05-02T17:10:47.328Z,23.20
2019-05-02T17:13:21.481Z,23.63
2019-05-02T17:15:52.374Z,22.47
2019-05-02T17:18:24.500Z,23.70
2019-05-02T17:20:56.946Z,22.63
2019-05-02T17:23:28.198Z,24.13
2019-05-02T17:26:01.469Z,23.03
2019-05-02T17:28:32.305Z,23.17
2019-05-02T17:31:03.468Z,22.83
2019-05-02T17:33:34.886Z,26.00
2019-05-02T17:36:06.055Z,27.00
2019-05-02T17:38:37.559Z,25.30
2019-05-02T17:41:09.094Z,26.03
2019-05-02T17:43:42.177Z,26.97
2019-05-02T17:46:18.335Z,30.30
2019-05-02T17:48:47.615Z,30.40
2019-05-02T17:51:33.858Z,30.00
2019-05-02T17:54:03.901Z,29.97
2019-05-02T17:56:35.115Z,33.47
2019-05-02T17:59:06.233Z,35.13
2019-05-02T18:01:41.795Z,33.53
2019-05-02T18:04:16.462Z,34.90
2019-05-02T18:06:46.830Z,33.83
2019-05-02T18:09:21.564Z,35.03
2019-05-02T18:11:52.454Z,36.13
2019-05-02T18:14:24.008Z,32.90
2019-05-02T18:16:55.800Z,33.30
2019-05-02T18:19:26.939Z,35.33
2019-05-02T18:22:02.674Z,34.70
2019-05-02T18:24:32.692Z,35.10
2019-05-02T18:27:04.836Z,33.93
2019-05-02T18:29:36.262Z,32.40
2019-05-02T18:32:08.585Z,31.33
2019-05-02T18:34:41.652Z,32.00
2019-05-02T18:37:12.623Z,30.83
2019-05-02T18:39:49.952Z,28.67
2019-05-02T18:42:21.931Z,31.03
2019-05-02T18:44:53.053Z,29.40
2019-05-02T18:47:24.655Z,26.40
2019-05-02T18:50:04.383Z,27.30
2019-05-02T18:52:36.406Z,26.00
2019-05-02T18:55:01.619Z,25.57
2019-05-02T18:57:32.832Z,25.20
2019-05-02T19:00:05.874Z,24.30
2019-05-02T19:02:37.375Z,25.10
2019-05-02T19:05:13.428Z,23.33
2019-05-02T19:07:42.846Z,22.73
2019-05-02T19:10:15.898Z,21.70
2019-05-02T19:12:47.250Z,21.40
2019-05-02T19:15:18.389Z,20.33
2019-05-02T19:17:49.484Z,19.70
2019-05-02T19:21:03.124Z,18.70
2019-05-02T19:23:35.654Z,18.80
2019-05-02T19:26:10.452Z,17.80
2019-05-02T19:29:08.560Z,18.00
2019-05-02T19:31:46.097Z,18.07
2019-05-02T19:34:24.725Z,16.07
2019-05-02T19:36:49.588Z,16.40
2019-05-02T19:39:23.946Z,14.57
2019-05-02T19:41:54.448Z,15.97
2019-05-02T19:44:29.234Z,13.20
2019-05-02T19:46:58.678Z,12.40
2019-05-02T19:49:29.670Z,11.87
2019-05-02T19:52:02.234Z,12.70
2019-05-02T19:54:39.287Z,12.27
2019-05-02T19:57:06.246Z,11.37
2019-05-02T19:59:37.301Z,11.97
2019-05-02T20:02:08.856Z,12.13
2019-05-02T20:04:42.594Z,12.33
2019-05-02T20:07:12.595Z,12.60
2019-05-02T20:09:47.199Z,12.67
2019-05-02T20:12:16.629Z,11.97
2019-05-02T20:14:47.780Z,13.77
2019-05-02T20:17:20.349Z,13.63
2019-05-02T20:19:57.771Z,14.20
2019-05-02T20:22:27.793Z,14.53
2019-05-02T20:25:01.136Z,14.87
2019-05-02T20:27:32.950Z,14.40
2019-05-02T20:30:04.911Z,14.13
2019-05-02T20:32:36.462Z,15.37
2019-05-02T20:35:08.127Z,14.63
2019-05-02T20:37:39.263Z,14.50
2019-05-02T20:40:26.112Z,15.93
2019-05-02T20:42:57.186Z,14.43
2019-05-02T20:45:28.664Z,14.10
2019-05-02T20:47:59.754Z,14.57
2019-05-02T20:50:31.855Z,14.47
2019-05-02T20:53:03.811Z,13.97
2019-05-02T20:55:35.284Z,13.97
2019-05-02T20:58:06.477Z,12.37
2019-05-02T21:00:37.650Z,14.30
2019-05-02T21:03:08.878Z,14.07
2019-05-02T21:05:51.943Z,13.87
2019-05-02T21:08:41.890Z,13.80
2019-05-02T21:11:12.938Z,13.63
2019-05-02T21:13:44.265Z,13.10
2019-05-02T21:16:15.746Z,13.47
2019-05-02T21:18:46.788Z,13.37
2019-05-02T21:21:18.488Z,12.90
2019-05-02T21:23:49.521Z,12.90
2019-05-02T21:26:22.011Z,12.00
2019-05-02T21:28:53.730Z,12.27
2019-05-02T21:31:24.891Z,11.23
2019-05-02T21:33:55.927Z,10.87
2019-05-02T21:36:27.792Z,11.57
2019-05-02T21:38:58.933Z,11.67
2019-05-02T21:41:29.970Z,12.00
2019-05-02T21:44:02.634Z,12.67
2019-05-02T21:46:34.733Z,11.63
2019-05-02T21:49:05.860Z,11.73
2019-05-02T21:51:42.921Z,11.30
2019-05-02T21:54:26.533Z,11.53
2019-05-02T21:57:06.413Z,11.83
2019-05-02T21:59:37.539Z,11.43
2019-05-02T22:02:11.883Z,12.23
2019-05-02T22:04:43.088Z,11.77
2019-05-02T22:07:14.267Z,11.83
2019-05-02T22:09:45.313Z,12.00
2019-05-02T22:12:16.395Z,12.17
2019-05-02T22:14:47.925Z,12.70
2019-05-02T22:17:19.065Z,12.83
2019-05-02T22:19:52.288Z,13.30
2019-05-02T22:22:23.325Z,13.33
2019-05-02T22:24:54.549Z,16.60
2019-05-02T22:27:26.416Z,13.77
2019-05-02T22:29:57.463Z,13.17
2019-05-02T22:32:28.965Z,13.30
2019-05-02T22:35:01.839Z,13.80
2019-05-02T22:37:34.410Z,12.30
2019-05-02T22:40:08.863Z,14.00
2019-05-02T22:42:41.732Z,13.90
2019-05-02T22:45:13.269Z,14.00
2019-05-02T22:47:44.342Z,13.77
2019-05-02T22:50:16.266Z,12.93
2019-05-02T22:52:47.666Z,13.20
2019-05-02T22:55:18.856Z,12.60
2019-05-02T22:57:51.783Z,13.53
2019-05-02T23:00:22.963Z,12.67
2019-05-02T23:02:56.342Z,12.83
2019-05-02T23:05:27.730Z,14.47
2019-05-02T23:07:59.505Z,14.43
2019-05-02T23:10:32.571Z,14.30
2019-05-02T23:13:03.461Z,14.10
2019-05-02T23:15:34.526Z,14.00
2019-05-02T23:18:05.732Z,14.50
2019-05-02T23:20:36.848Z,13.03
2019-05-02T23:23:07.984Z,13.30
2019-05-02T23:26:10.361Z,13.07
2019-05-02T23:28:43.864Z,14.60
2019-05-02T23:31:14.990Z,14.03
2019-05-02T23:33:58.165Z,13.30
2019-05-02T23:36:32.504Z,14.53
2019-05-02T23:39:04.413Z,14.17
2019-05-02T23:41:36.133Z,12.87
2019-05-02T23:44:07.185Z,14.47
2019-05-02T23:46:38.618Z,13.37
2019-05-02T23:49:10.004Z,12.63
2019-05-02T23:51:42.714Z,13.87
2019-05-02T23:54:14.019Z,12.60
2019-05-02T23:56:46.425Z,12.90
2019-05-02T23:59:17.511Z,12.23
